createdAt,value
2023-03-01T00:01:51.876Z,51.81
2023-03-01T00:04:53.459Z,51.78
2023-03-01T00:07:55.018Z,51.59
2023-03-01T00:11:08.481Z,51.69
2023-03-01T00:14:10.573Z,51.78
2023-03-01T00:17:12.426Z,52.00
2023-03-01T00:20:14.042Z,52.19
2023-03-01T00:23:15.630Z,51.64
2023-03-01T00:26:18.881Z,52.06
2023-03-01T00:29:20.442Z,52.47
2023-03-01T00:32:22.167Z,52.10
2023-03-01T00:35:24.134Z,52.38
2023-03-01T00:38:25.836Z,52.08
2023-03-01T00:41:28.077Z,52.42
2023-03-01T00:44:29.621Z,52.18
2023-03-01T00:47:31.163Z,52.07
2023-03-01T00:50:32.731Z,51.72
2023-03-01T00:53:35.243Z,51.75
2023-03-01T00:56:36.954Z,52.27
2023-03-01T00:59:38.479Z,52.20
2023-03-01T01:02:40.121Z,51.71
2023-03-01T01:05:41.668Z,52.40
2023-03-01T01:08:43.234Z,51.99
2023-03-01T01:11:50.024Z,52.37
2023-03-01T01:14:51.546Z,51.98
2023-03-01T01:17:53.178Z,52.02
2023-03-01T01:20:54.710Z,51.89
2023-03-01T01:23:56.537Z,52.38
2023-03-01T01:26:58.094Z,52.04
2023-03-01T01:29:59.640Z,52.14
2023-03-01T01:33:01.191Z,52.57
2023-03-01T01:36:02.957Z,52.04
2023-03-01T01:39:05.450Z,51.95
2023-03-01T01:42:07.035Z,51.92
2023-03-01T01:45:33.005Z,52.45
2023-03-01T01:48:47.730Z,52.03
2023-03-01T01:51:52.204Z,52.12
2023-03-01T01:55:01.241Z,52.12
2023-03-01T01:58:06.934Z,52.29
2023-03-01T02:01:08.705Z,51.81
2023-03-01T02:04:10.581Z,52.45
2023-03-01T02:07:19.090Z,52.21
2023-03-01T02:10:22.502Z,52.12
2023-03-01T02:13:24.692Z,52.20
2023-03-01T02:16:27.341Z,52.33
2023-03-01T02:19:45.147Z,52.20
2023-03-01T02:22:47.653Z,52.51
2023-03-01T02:26:01.519Z,52.55
2023-03-01T02:29:03.625Z,52.50
2023-03-01T02:32:06.115Z,52.64
2023-03-01T02:35:09.176Z,52.27
2023-03-01T02:38:10.800Z,52.71
2023-03-01T02:41:15.933Z,52.64
2023-03-01T02:44:17.487Z,52.15
2023-03-01T02:47:19.076Z,52.62
2023-03-01T02:51:07.027Z,52.32
2023-03-01T02:54:46.319Z,52.87
2023-03-01T02:57:52.172Z,52.83
2023-03-01T03:00:53.884Z,52.69
2023-03-01T03:03:55.471Z,52.44
2023-03-01T03:06:57.173Z,52.88
2023-03-01T03:09:58.671Z,52.25
2023-03-01T03:13:06.349Z,52.41
2023-03-01T03:16:08.120Z,52.16
2023-03-01T03:19:09.718Z,52.78
2023-03-01T03:22:11.282Z,52.70
2023-03-01T03:25:13.578Z,52.70
2023-03-01T03:28:16.882Z,52.82
2023-03-01T03:31:18.519Z,52.60
2023-03-01T03:34:20.431Z,52.38
2023-03-01T03:37:40.573Z,52.66
2023-03-01T03:40:47.758Z,52.94
2023-03-01T03:43:49.989Z,52.45
2023-03-01T03:46:51.603Z,52.54
2023-03-01T03:49:53.110Z,52.88
2023-03-01T03:52:54.858Z,52.89
2023-03-01T03:55:56.608Z,52.56
2023-03-01T03:58:58.158Z,52.72
2023-03-01T04:02:00.128Z,52.95
2023-03-01T04:05:01.678Z,52.54
2023-03-01T04:08:03.844Z,53.17
2023-03-01T04:11:24.795Z,52.90
2023-03-01T04:14:26.312Z,53.10
2023-03-01T04:17:28.461Z,52.35
2023-03-01T04:20:32.127Z,52.22
2023-03-01T04:23:33.682Z,53.21
2023-03-01T04:26:35.270Z,52.98
2023-03-01T04:29:36.818Z,52.67
2023-03-01T04:32:38.407Z,52.71
2023-03-01T04:35:40.159Z,52.72
2023-03-01T04:38:42.259Z,52.97
2023-03-01T04:41:46.379Z,52.85
2023-03-01T04:44:47.957Z,53.02
2023-03-01T04:47:50.017Z,53.33
2023-03-01T04:50:51.547Z,52.50
2023-03-01T04:53:53.119Z,53.00
2023-03-01T04:56:55.330Z,53.05
2023-03-01T04:59:56.881Z,53.15
2023-03-01T05:03:01.473Z,53.20
2023-03-01T05:06:03.089Z,53.32
2023-03-01T05:09:04.740Z,53.20
2023-03-01T05:12:06.398Z,52.80
2023-03-01T05:15:08.432Z,52.44
2023-03-01T05:18:12.368Z,53.13
2023-03-01T05:21:17.208Z,53.09
2023-03-01T05:24:18.935Z,53.08
2023-03-01T05:27:23.120Z,53.13
2023-03-01T05:30:24.695Z,52.84
2023-03-01T05:33:27.767Z,53.08
2023-03-01T05:36:29.782Z,52.55
2023-03-01T05:39:32.598Z,53.00
2023-03-01T05:42:34.151Z,52.67
2023-03-01T05:45:37.952Z,53.18
2023-03-01T05:48:39.954Z,53.63
2023-03-01T05:51:42.667Z,53.38
2023-03-01T05:54:44.207Z,53.10
2023-03-01T05:57:46.273Z,53.00
2023-03-01T06:00:49.130Z,52.97
2023-03-01T06:03:50.679Z,53.33
2023-03-01T06:06:52.472Z,52.71
2023-03-01T06:09:53.970Z,53.67
2023-03-01T06:12:55.885Z,53.07
2023-03-01T06:15:57.445Z,52.94
2023-03-01T06:18:58.953Z,53.30
2023-03-01T06:22:00.493Z,52.87
2023-03-01T06:25:02.328Z,53.35
2023-03-01T06:28:05.553Z,53.42
2023-03-01T06:31:09.951Z,53.15
2023-03-01T06:34:14.496Z,52.77
2023-03-01T06:37:16.045Z,53.16
2023-03-01T06:40:17.826Z,52.70
2023-03-01T06:43:19.374Z,53.00
2023-03-01T06:46:20.945Z,53.37
2023-03-01T06:49:22.665Z,52.74
2023-03-01T06:52:24.329Z,53.13
2023-03-01T06:55:26.180Z,53.09
2023-03-01T06:58:29.008Z,52.99
2023-03-01T07:01:31.567Z,53.56
2023-03-01T07:04:33.191Z,53.01
2023-03-01T07:07:34.761Z,53.50
2023-03-01T07:10:36.508Z,53.20
2023-03-01T07:13:38.121Z,52.79
2023-03-01T07:16:39.656Z,53.28
2023-03-01T07:19:41.290Z,53.44
2023-03-01T07:22:45.938Z,54.41
2023-03-01T07:25:55.247Z,53.80
2023-03-01T07:28:56.834Z,53.88
2023-03-01T07:31:58.379Z,53.52
2023-03-01T07:35:00.092Z,53.10
2023-03-01T07:38:01.619Z,53.52
2023-03-01T07:41:04.713Z,53.41
2023-03-01T07:44:06.901Z,53.23
2023-03-01T07:47:08.666Z,53.49
2023-03-01T07:50:10.949Z,53.25
2023-03-01T07:53:12.523Z,53.61
2023-03-01T07:56:18.550Z,53.67
2023-03-01T07:59:20.153Z,53.79
2023-03-01T08:02:21.680Z,53.51
2023-03-01T08:05:23.260Z,53.22
2023-03-01T08:08:24.773Z,53.12
2023-03-01T08:11:26.513Z,53.86
2023-03-01T08:14:28.178Z,53.53
2023-03-01T08:17:29.695Z,53.25
2023-03-01T08:20:31.235Z,53.30
2023-03-01T08:23:32.834Z,53.29
2023-03-01T08:26:34.779Z,53.32
2023-03-01T08:29:36.470Z,53.14
2023-03-01T08:32:39.954Z,53.76
2023-03-01T08:35:41.836Z,53.46
2023-03-01T08:38:43.479Z,53.48
2023-03-01T08:41:47.096Z,53.34
2023-03-01T08:44:49.670Z,53.15
2023-03-01T08:47:54.261Z,53.32
2023-03-01T08:50:56.384Z,53.25
2023-03-01T08:53:58.115Z,53.42
2023-03-01T08:57:02.800Z,53.17
2023-03-01T09:00:04.645Z,53.63
2023-03-01T09:03:06.223Z,53.35
2023-03-01T09:06:08.696Z,53.25
2023-03-01T09:09:18.572Z,53.48
2023-03-01T09:12:20.123Z,53.47
2023-03-01T09:15:21.684Z,53.58
2023-03-01T09:18:23.343Z,53.63
2023-03-01T09:21:39.209Z,53.45
2023-03-01T09:24:41.662Z,53.41
2023-03-01T09:27:44.476Z,53.36
2023-03-01T09:30:46.056Z,53.52
2023-03-01T09:33:49.450Z,53.30
2023-03-01T09:36:52.268Z,53.35
2023-03-01T09:39:53.817Z,53.06
2023-03-01T09:43:17.645Z,52.90
2023-03-01T09:46:19.989Z,53.58
2023-03-01T09:49:31.571Z,53.43
2023-03-01T09:52:43.444Z,53.29
2023-03-01T09:56:01.141Z,53.27
2023-03-01T09:59:14.627Z,53.11
2023-03-01T10:02:16.120Z,53.03
2023-03-01T10:05:48.319Z,52.90
2023-03-01T10:09:06.179Z,52.88
2023-03-01T10:12:14.983Z,52.69
2023-03-01T10:15:23.184Z,52.57
2023-03-01T10:18:29.608Z,52.65
2023-03-01T10:21:33.111Z,52.71
2023-03-01T10:24:37.181Z,52.70
2023-03-01T10:27:43.584Z,52.49
2023-03-01T10:30:46.089Z,52.60
2023-03-01T10:33:48.995Z,52.50
2023-03-01T10:36:57.996Z,52.49
2023-03-01T10:40:11.778Z,52.55
2023-03-01T10:43:13.545Z,52.26
2023-03-01T10:46:31.233Z,52.40
2023-03-01T10:49:32.895Z,52.31
2023-03-01T10:52:41.271Z,52.31
2023-03-01T10:55:42.959Z,52.13
2023-03-01T10:59:03.930Z,52.19
2023-03-01T11:02:25.084Z,52.09
2023-03-01T11:05:29.509Z,52.11
2023-03-01T11:08:51.823Z,52.08
2023-03-01T11:11:57.657Z,52.10
2023-03-01T11:14:59.309Z,52.14
2023-03-01T11:18:13.455Z,52.08
2023-03-01T11:21:17.279Z,51.96
2023-03-01T11:24:20.731Z,51.97
2023-03-01T11:27:41.862Z,51.83
2023-03-01T11:31:08.541Z,51.79
2023-03-01T11:34:20.776Z,52.08
2023-03-01T11:37:31.282Z,52.03
2023-03-01T11:40:44.671Z,51.87
2023-03-01T11:43:54.789Z,52.00
2023-03-01T11:47:18.097Z,52.09
2023-03-01T11:50:28.988Z,51.81
2023-03-01T11:54:09.711Z,51.77
2023-03-01T11:57:50.745Z,52.04
2023-03-01T12:01:10.541Z,51.90
2023-03-01T12:04:36.382Z,51.85
2023-03-01T12:07:51.687Z,51.91
2023-03-01T12:11:17.768Z,51.92
2023-03-01T12:14:53.079Z,51.88
2023-03-01T12:18:43.344Z,51.84
2023-03-01T12:21:59.807Z,51.84
2023-03-01T12:25:07.267Z,51.75
2023-03-01T12:28:49.883Z,51.73
2023-03-01T12:32:30.836Z,51.79
2023-03-01T12:36:00.338Z,51.88
2023-03-01T12:39:25.105Z,51.87
2023-03-01T12:43:04.559Z,51.73
2023-03-01T12:46:40.246Z,51.81
2023-03-01T12:49:49.208Z,51.63
2023-03-01T12:52:59.431Z,51.86
2023-03-01T12:56:23.142Z,52.05
2023-03-01T12:59:37.534Z,51.79
2023-03-01T13:02:39.015Z,51.87
2023-03-01T13:06:12.035Z,51.83
2023-03-01T13:09:35.043Z,51.85
2023-03-01T13:12:53.947Z,51.72
2023-03-01T13:15:56.981Z,51.81
2023-03-01T13:19:14.639Z,51.87
2023-03-01T13:22:29.717Z,51.68
2023-03-01T13:25:34.763Z,51.85
2023-03-01T13:28:58.253Z,51.40
2023-03-01T13:32:00.232Z,51.65
2023-03-01T13:35:05.842Z,51.68
2023-03-01T13:38:59.090Z,51.75
2023-03-01T13:42:01.724Z,51.46
2023-03-01T13:45:04.538Z,51.50
2023-03-01T13:48:26.008Z,51.45
2023-03-01T13:51:29.171Z,51.61
2023-03-01T13:54:32.980Z,51.64
2023-03-01T13:57:36.864Z,51.60
2023-03-01T14:00:40.937Z,51.69
2023-03-01T14:03:43.159Z,51.49
2023-03-01T14:06:44.813Z,51.65
2023-03-01T14:09:50.151Z,51.65
2023-03-01T14:13:15.651Z,51.62
2023-03-01T14:17:12.011Z,51.69
2023-03-01T14:20:17.524Z,51.73
2023-03-01T14:23:22.530Z,51.70
2023-03-01T14:26:24.734Z,51.77
2023-03-01T14:29:26.268Z,51.71
2023-03-01T14:32:30.561Z,51.73
2023-03-01T14:35:35.471Z,51.49
2023-03-01T14:38:42.483Z,51.71
2023-03-01T14:41:44.413Z,51.71
2023-03-01T14:44:51.674Z,51.53
2023-03-01T14:47:54.352Z,51.70
2023-03-01T14:50:55.902Z,51.80
2023-03-01T14:53:58.430Z,51.68
2023-03-01T14:57:01.943Z,51.67
2023-03-01T15:00:07.702Z,51.63
2023-03-01T15:03:14.402Z,51.65
2023-03-01T15:06:19.682Z,51.65
2023-03-01T15:09:22.580Z,51.61
2023-03-01T15:12:30.225Z,51.56
2023-03-01T15:15:31.725Z,51.57
2023-03-01T15:18:33.988Z,51.78
2023-03-01T15:21:38.217Z,51.71
2023-03-01T15:24:39.905Z,51.70
2023-03-01T15:27:47.494Z,51.67
2023-03-01T15:30:56.539Z,51.51
2023-03-01T15:34:23.316Z,51.72
2023-03-01T15:37:42.390Z,51.72
2023-03-01T15:40:51.281Z,51.74
2023-03-01T15:43:56.451Z,51.73
2023-03-01T15:46:58.673Z,51.83
2023-03-01T15:50:01.785Z,51.84
2023-03-01T15:53:09.047Z,51.79
2023-03-01T15:56:10.598Z,51.88
2023-03-01T15:59:15.053Z,51.77
2023-03-01T16:02:16.613Z,51.83
2023-03-01T16:05:25.896Z,51.76
2023-03-01T16:08:27.526Z,51.85
2023-03-01T16:11:29.188Z,51.90
2023-03-01T16:14:30.764Z,51.91
2023-03-01T16:17:32.319Z,51.85
2023-03-01T16:20:34.148Z,51.80
2023-03-01T16:23:35.723Z,51.78
2023-03-01T16:26:38.814Z,51.73
2023-03-01T16:29:40.492Z,51.87
2023-03-01T16:32:44.406Z,51.85
2023-03-01T16:35:46.218Z,51.86
2023-03-01T16:38:49.377Z,51.99
2023-03-01T16:41:50.965Z,52.04
2023-03-01T16:44:58.749Z,52.08
2023-03-01T16:48:00.679Z,52.12
2023-03-01T16:51:03.016Z,52.31
2023-03-01T16:54:05.603Z,52.06
2023-03-01T16:57:07.193Z,52.37
2023-03-01T17:00:14.164Z,52.29
2023-03-01T17:03:18.150Z,52.24
2023-03-01T17:06:23.186Z,52.20
2023-03-01T17:09:24.884Z,52.38
2023-03-01T17:12:26.471Z,52.23
2023-03-01T17:15:28.076Z,52.27
2023-03-01T17:18:29.658Z,52.29
2023-03-01T17:21:31.777Z,52.50
2023-03-01T17:24:39.148Z,52.38
2023-03-01T17:27:41.295Z,52.38
2023-03-01T17:30:45.153Z,52.30
2023-03-01T17:33:47.170Z,52.33
2023-03-01T17:36:50.693Z,52.52
2023-03-01T17:39:52.252Z,52.57
2023-03-01T17:42:53.789Z,52.36
2023-03-01T17:45:56.657Z,52.42
2023-03-01T17:48:58.231Z,52.58
2023-03-01T17:52:00.567Z,52.66
2023-03-01T17:55:02.146Z,52.36
2023-03-01T17:58:04.585Z,52.53
2023-03-01T18:01:20.343Z,52.73
2023-03-01T18:04:22.007Z,52.65
2023-03-01T18:07:26.431Z,52.95
2023-03-01T18:10:28.288Z,52.55
2023-03-01T18:13:29.797Z,52.80
2023-03-01T18:16:32.609Z,52.78
2023-03-01T18:19:34.335Z,53.03
2023-03-01T18:22:37.885Z,52.70
2023-03-01T18:25:39.987Z,53.23
2023-03-01T18:28:42.183Z,53.18
2023-03-01T18:31:43.840Z,53.15
2023-03-01T18:34:45.626Z,52.78
2023-03-01T18:37:47.206Z,53.11
2023-03-01T18:40:48.942Z,53.02
2023-03-01T18:43:50.465Z,53.00
2023-03-01T18:46:53.057Z,53.24
2023-03-01T18:49:54.582Z,53.23
2023-03-01T18:52:56.207Z,52.86
2023-03-01T18:56:01.321Z,53.11
2023-03-01T18:59:04.118Z,53.11
2023-03-01T19:02:06.176Z,52.89
2023-03-01T19:05:08.432Z,53.12
2023-03-01T19:08:09.959Z,52.93
2023-03-01T19:11:12.683Z,52.93
2023-03-01T19:14:14.272Z,53.11
2023-03-01T19:17:16.010Z,53.19
2023-03-01T19:20:17.542Z,52.99
2023-03-01T19:23:19.115Z,53.60
2023-03-01T19:26:23.648Z,53.25
2023-03-01T19:29:25.394Z,53.42
2023-03-01T19:32:26.997Z,53.21
2023-03-01T19:35:28.585Z,53.41
2023-03-01T19:38:30.767Z,53.48
2023-03-01T19:41:32.555Z,53.24
2023-03-01T19:44:34.111Z,53.28
2023-03-01T19:47:35.666Z,53.57
2023-03-01T19:50:38.508Z,53.49
2023-03-01T19:53:40.554Z,53.33
2023-03-01T19:56:42.088Z,53.68
2023-03-01T19:59:43.725Z,53.62
2023-03-01T20:02:45.258Z,53.37
2023-03-01T20:05:46.817Z,53.20
2023-03-01T20:08:49.266Z,53.56
2023-03-01T20:11:51.631Z,53.33
2023-03-01T20:14:55.456Z,53.62
2023-03-01T20:17:57.036Z,53.63
2023-03-01T20:20:59.474Z,53.47
2023-03-01T20:24:02.074Z,53.33
2023-03-01T20:27:03.709Z,53.71
2023-03-01T20:30:06.026Z,53.41
2023-03-01T20:33:07.899Z,53.49
2023-03-01T20:36:10.479Z,53.42
2023-03-01T20:39:12.112Z,53.47
2023-03-01T20:42:13.660Z,53.71
2023-03-01T20:45:15.418Z,53.45
2023-03-01T20:48:16.999Z,53.72
2023-03-01T20:51:18.918Z,53.72
2023-03-01T20:54:20.584Z,53.71
2023-03-01T20:57:22.258Z,53.88
2023-03-01T21:00:23.934Z,53.82
2023-03-01T21:03:25.779Z,53.62
2023-03-01T21:06:27.393Z,53.90
2023-03-01T21:09:28.946Z,53.98
2023-03-01T21:12:31.045Z,53.63
2023-03-01T21:15:32.607Z,53.84
2023-03-01T21:18:36.921Z,54.00
2023-03-01T21:21:38.656Z,54.07
2023-03-01T21:24:40.616Z,53.90
2023-03-01T21:27:42.189Z,53.87
2023-03-01T21:30:43.746Z,53.77
2023-03-01T21:33:51.005Z,53.84
2023-03-01T21:36:52.582Z,53.98
2023-03-01T21:39:54.139Z,53.70
2023-03-01T21:42:55.738Z,53.90
2023-03-01T21:46:00.440Z,53.65
2023-03-01T21:49:04.708Z,53.97
2023-03-01T21:52:06.237Z,53.81
2023-03-01T21:55:09.235Z,54.01
2023-03-01T21:58:10.785Z,53.81
2023-03-01T22:01:15.749Z,54.04
2023-03-01T22:04:18.507Z,53.97
2023-03-01T22:07:20.048Z,54.05
2023-03-01T22:10:27.171Z,54.37
2023-03-01T22:13:28.934Z,53.99
2023-03-01T22:16:33.734Z,54.28
2023-03-01T22:19:35.513Z,53.85
2023-03-01T22:22:37.087Z,53.88
2023-03-01T22:25:42.458Z,53.70
2023-03-01T22:28:45.547Z,54.07
2023-03-01T22:31:47.800Z,53.94
2023-03-01T22:34:49.379Z,53.73
2023-03-01T22:37:50.988Z,53.90
2023-03-01T22:41:10.949Z,53.88
2023-03-01T22:44:15.028Z,54.31
2023-03-01T22:47:16.610Z,54.29
2023-03-01T22:50:18.311Z,54.16
2023-03-01T22:53:19.901Z,54.08
2023-03-01T22:56:25.885Z,54.31
2023-03-01T22:59:27.683Z,54.21
2023-03-01T23:02:29.341Z,53.99
2023-03-01T23:05:30.957Z,54.35
2023-03-01T23:08:32.810Z,54.48
2023-03-01T23:11:34.381Z,54.45
2023-03-01T23:14:36.232Z,54.29
2023-03-01T23:17:38.383Z,54.44
2023-03-01T23:20:40.017Z,54.39
2023-03-01T23:23:42.570Z,54.36
2023-03-01T23:26:45.796Z,54.43
2023-03-01T23:29:47.500Z,54.49
2023-03-01T23:32:49.096Z,54.47
2023-03-01T23:35:51.004Z,54.54
2023-03-01T23:38:56.691Z,54.61
2023-03-01T23:41:58.804Z,54.72
2023-03-01T23:45:00.403Z,54.69
2023-03-01T23:48:01.900Z,54.89
2023-03-01T23:51:05.294Z,54.82
2023-03-01T23:54:07.378Z,54.93
2023-03-01T23:57:08.995Z,54.71
